Terminal Aerodrome Forecast
Issued by NWS

Home | Current Version | Previous Version | Text Only | Print | Product List | Glossary On
Versions: 1 2 3 4 5 6 7 8 9 10 11 12 13 14 15 16 17 18 19 20 21 22 23 24 25 26 27 28 29 30 31 32 33 34 35 36 37 38 39 40 41 42 43 44 45 46 47 48
000
FTUS43 KLOT 201137
TAFGYY
TAF
KGYY 201137Z 2012/2112 15004KT 4SM BR BKN250
      TEMPO 2013/2015 3/4SM BR BKN005
     FM201600 15010KT 5SM BR FEW006 BKN015 OVC200
     FM201800 15012G19KT P6SM SCT035 OVC200
     FM210100 16014G24KT P6SM OVC150
     FM210400 19013G23KT P6SM OVC035 WS015/19045KT
     FM210800 23012KT 6SM -SHRA SCT015 OVC035
      TEMPO 2109/2112 3SM SHRA BR SCT008 OVC015=

USA.gov is the U.S. government's official web portal to all federal, state and local government web resources and services.